MET'MAP v2.0
soon released !

Expected late october,
this new version will be
more efficient, smarter,
and hosted on a brand new
server x3 powerfull...
...and still free !


Not compatible ?
Try the mobile version !

LOG IN : | Subscribe | Disclaimer | Who is Orbifly ? |
ICAO code :
Legend : VFR Marginal VFR IFR Intensive IFR Very Intensive IFR
Visi :
Ceiling :
>= 8 km
>= 3000ft
5 to 8 km
1000 to 3000 ft
1500m to 5 km
500 to 1000 ft
800 to 1500m
200 to 500 ft
< 800m
< 200 ft

METAR - LZTT Poprad Tatry - 09 Apr 2020 15:59 UTC - Data Source NOAA   


- Airport Elevation : 2356 ft
- No reported NOTAMs.


LZTT - Poprad Tatry

Latest METAR recorded : 2015/08/11 08:00 LZTT 110800Z VRB03KT 9999 FEW066 28/17 Q1018 NOSIG
TAF TAF LZTT
Valid from the 09 at 12:00 until the 10 at 12:00 UTC


091100Z 0912/1012 25006KT CAVOK
TEMPO 0912/0916 27014KT
BECMG 0922/1000 9999 FEW050 SCT080
PROB30
TEMPO 1000/1009 -SHRA BKN060
BECMG 1009/1011 06012KT

Source NOAA


MET'MAP, your aeronautical weather chart ! - Copyright ORBIFLY December 2007

Programming & Development : Alexandra Zaïnal
Co-Developer : Marc-Olivier Méhu
Technical & hardware support : Manuel Goepfert
Concept & Financing : Baudouin d'Aumeries